Latest Weather Observations for Coolangatta

IDN60801

Issued at 9:02 pm EDT Sunday 26 February 2017 (issued every 30 minutes, with the page automatically refreshed every 10 minutes)

About weather observations | Map of weather stations | Latest weather observations for NSW | Other Formats
Station Details ID: 040717 Name: COOLANGATTA Lat: -28.17 Lon: 153.51 Height: 4.0 m
Data from the previous 72 hours. | See also: Recent months at Coolangatta
Date/Time
EDT
Temp
°C
App
Temp
°C
Dew
Point
°C
Rel
Hum
%
Delta-T
°C
Wind Press
QNH
hPa
Press
MSL
hPa
Rain since
9am
mm
Dir  Spd
km/h
Gust
km/h
Spd
kts
Gust
kts
26/09:00pm 23.7 23.0 18.6 73 3.2 S 20 26 11 14 1017.3 1017.2 -
26/08:57pm 23.7 23.0 18.6 73 3.2 S 20 28 11 15 1017.2 1017.1 0.2
26/08:30pm 23.9 23.3 18.8 73 3.2 S 20 30 11 16 1016.6 1016.5 0.2
26/08:29pm 23.9 23.5 18.8 73 3.2 S 19 28 10 15 1016.6 1016.5 0.2
26/08:00pm 24.0 23.3 18.6 72 3.4 S 20 28 11 15 1016.5 1016.4 0.2
26/07:30pm 24.6 23.0 18.3 68 4.0 S 24 33 13 18 1016.2 1016.1 0.2
26/07:00pm 24.7 23.4 18.2 67 4.1 S 22 33 12 18 1016.0 1015.9 0.2
26/06:30pm 25.5 23.0 18.9 67 4.2 SSE 30 39 16 21 1015.6 1015.5 0.2
26/06:00pm 26.6 23.7 17.9 59 5.5 SSE 30 39 16 21 1015.5 1015.4 0.2
26/05:30pm 26.2 23.2 17.8 60 5.3 S 30 41 16 22 1015.4 1015.3 0.2
26/05:00pm 26.4 23.6 17.2 57 5.7 SSE 28 37 15 20 1015.4 1015.3 0.2
26/04:30pm 26.9 23.9 17.7 57 5.8 SSE 30 44 16 24 1015.2 1015.1 0.2
26/04:01pm 26.4 23.3 17.5 58 5.6 SSE 30 48 16 26 1015.3 1015.2 0.2
26/04:00pm 26.6 23.5 17.4 57 5.8 SSE 30 44 16 24 1015.3 1015.2 0.2
26/03:49pm 26.8 24.2 17.8 57 5.7 SSE 28 46 15 25 1015.3 1015.2 0.2
26/03:30pm 26.5 22.4 16.4 53 6.2 SSE 33 44 18 24 1015.3 1015.2 0.2
26/03:00pm 27.7 24.3 17.8 54 6.3 SSE 32 43 17 23 1015.4 1015.3 0.2
26/02:30pm 27.4 24.3 18.4 58 5.7 SE 32 43 17 23 1015.6 1015.5 0.2
26/02:19pm 26.8 24.0 18.1 59 5.5 SSE 30 48 16 26 1015.5 1015.4 0.2
26/02:00pm 28.9 26.4 18.1 52 6.9 SSE 28 37 15 20 1015.7 1015.6 0.2
26/01:30pm 28.9 24.7 16.1 46 7.9 SE 33 44 18 24 1015.9 1015.8 0.2
26/01:00pm 29.0 24.9 16.5 46 7.8 SE 33 46 18 25 1016.1 1016.0 0.2
26/12:30pm 28.6 25.0 17.2 50 7.2 SE 32 43 17 23 1016.3 1016.2 0.2
26/12:00pm 28.4 24.6 16.7 49 7.3 SE 32 44 17 24 1016.5 1016.4 0.2
26/11:30am 28.0 25.7 17.5 52 6.6 SSE 26 35 14 19 1016.6 1016.5 0.2
26/11:00am 27.8 25.9 17.6 53 6.4 SSE 24 37 13 20 1016.7 1016.6 0.2
26/10:30am 26.8 24.2 17.8 57 5.7 SSE 28 37 15 20 1016.6 1016.5 0.2
26/10:00am 26.3 24.5 17.9 60 5.3 SSE 24 37 13 20 1016.4 1016.3 2.0
26/09:30am 25.8 25.2 18.5 64 4.6 S 19 28 10 15 1016.3 1016.2 2.0
26/09:00am 24.9 24.7 18.4 67 4.1 S 17 26 9 14 1016.2 1016.1 2.0
26/08:30am 24.0 23.6 18.0 69 3.8 SSW 17 26 9 14 1015.9 1015.8 2.0
26/08:00am 23.5 23.6 18.4 73 3.2 SSW 15 22 8 12 1015.6 1015.5 2.0
26/07:30am 22.3 22.6 17.9 76 2.7 SSW 13 20 7 11 1015.3 1015.2 2.0
26/07:00am 21.4 21.7 17.8 80 2.2 SSW 13 19 7 10 1015.0 1014.9 2.0
26/06:30am 21.1 21.8 17.9 82 2.0 SSW 11 15 6 8 1014.5 1014.4 2.0
26/06:00am 21.2 22.5 18.4 84 1.7 S 9 13 5 7 1014.1 1014.0 2.0
26/05:30am 20.9 21.7 18.1 84 1.7 SSW 11 13 6 7 1014.1 1014.0 2.0
26/05:00am 20.4 21.3 18.3 88 1.3 S 11 15 6 8 1013.8 1013.7 2.0
26/04:30am 20.3 21.5 18.2 88 1.3 SSW 9 11 5 6 1013.9 1013.8 2.0
26/04:00am 20.8 22.3 18.9 89 1.2 SSW 9 11 5 6 1014.1 1014.0 2.0
26/03:30am 20.9 22.4 19.0 89 1.2 S 9 17 5 9 1014.3 1014.2 1.8
26/03:00am 20.9 22.4 18.8 88 1.3 S 9 17 5 9 1014.4 1014.3 1.6
26/02:45am 21.2 21.4 18.6 85 1.6 S 15 24 8 13 1014.4 1014.3 1.6
26/02:30am 22.2 21.7 17.8 76 2.7 S 17 24 9 13 1014.4 1014.3 0.0
26/02:00am 23.2 23.3 17.4 70 3.6 S 13 20 7 11 1014.8 1014.7 0.0
26/01:30am 23.3 23.0 17.3 69 3.7 SSW 15 20 8 11 1015.3 1015.2 0.0
26/01:00am 23.0 22.2 17.0 69 3.7 SSW 17 24 9 13 1015.6 1015.5 0.0
26/12:30am 23.0 22.9 17.0 69 3.7 SW 13 20 7 11 1016.1 1016.0 0.0
26/12:00am 23.0 22.5 17.0 69 3.7 SSW 15 20 8 11 1016.4 1016.3 0.0
 
Date/Time
EDT
Temp
°C
App
Temp
°C
Dew
Point
°C
Rel
Hum
%
Delta-T
°C
Wind Press
QNH
hPa
Press
MSL
hPa
Rain since
9am
mm
Dir  Spd
km/h
Gust
km/h
Spd
kts
Gust
kts
25/11:30pm 23.2 22.4 17.0 68 3.8 SSW 17 26 9 14 1016.1 1016.0 0.0
25/11:00pm 23.1 22.1 16.6 67 4.0 SSW 17 24 9 13 1016.1 1016.0 0.0
25/10:30pm 23.1 22.4 16.4 66 4.1 SSW 15 22 8 12 1016.6 1016.5 0.0
25/10:00pm 23.1 22.3 16.2 65 4.2 SSW 15 20 8 11 1016.4 1016.3 0.0
25/09:30pm 23.3 22.9 16.1 64 4.4 SSW 13 20 7 11 1016.1 1016.0 0.0
25/09:00pm 23.7 22.5 16.2 63 4.6 SSW 17 26 9 14 1015.8 1015.7 0.0
25/08:30pm 23.9 22.4 16.7 64 4.4 S 20 26 11 14 1015.7 1015.6 0.0
25/08:00pm 24.2 21.9 16.7 63 4.6 SSE 24 35 13 19 1015.5 1015.4 0.0
25/07:30pm 24.6 21.6 16.8 62 4.8 SSE 28 37 15 20 1015.3 1015.2 0.0
25/07:00pm 25.0 21.7 17.0 61 4.9 SSE 30 39 16 21 1014.9 1014.8 0.0
25/06:30pm 25.8 23.0 17.2 59 5.4 SSE 28 37 15 20 1014.4 1014.3 0.0
25/06:00pm 26.4 22.9 17.5 58 5.6 SSE 32 46 17 25 1014.2 1014.1 0.0
25/05:30pm 27.0 23.5 17.8 57 5.8 SSE 33 48 18 26 1014.1 1014.0 0.0
25/05:17pm 27.3 23.7 17.2 54 6.3 SSE 32 50 17 27 1014.0 1013.9 0.0
25/05:00pm 27.5 23.2 17.7 55 6.2 SE 37 54 20 29 1013.9 1013.8 0.0
25/04:52pm 27.3 23.1 17.2 54 6.3 SE 35 54 19 29 1013.9 1013.8 0.0
25/04:30pm 27.6 22.7 17.2 53 6.5 SE 39 52 21 28 1013.8 1013.7 0.0
25/04:00pm 27.8 23.7 17.3 52 6.6 SSE 35 54 19 29 1013.9 1013.8 0.0
25/03:30pm 28.0 22.8 17.5 52 6.6 SE 41 59 22 32 1014.1 1014.0 0.0
25/03:22pm 28.2 23.0 17.4 52 6.8 SE 41 59 22 32 1014.1 1014.0 0.0
25/03:00pm 28.2 24.6 17.7 53 6.6 SSE 33 44 18 24 1014.4 1014.3 0.0
25/02:30pm 28.5 23.6 17.4 51 7.0 SE 39 50 21 27 1014.7 1014.6 0.0
25/02:00pm 29.2 25.6 18.6 52 6.8 SE 35 46 19 25 1015.1 1015.0 0.0
25/01:30pm 30.1 26.6 18.8 50 7.3 SE 35 50 19 27 1015.2 1015.1 0.0
25/01:08pm 29.2 25.9 18.0 51 7.1 SE 32 50 17 27 1015.4 1015.3 0.0
25/01:00pm 28.9 26.6 17.7 50 7.1 SSE 26 41 14 22 1015.4 1015.3 0.0
25/12:30pm 30.5 28.6 17.6 46 8.2 SE 24 32 13 17 1015.5 1015.4 0.0
25/12:00pm 30.0 28.0 16.4 44 8.5 SSE 22 33 12 18 1016.0 1015.9 0.0
25/11:30am 27.5 25.4 16.1 49 7.0 SSE 22 32 12 17 1016.4 1016.3 0.0
25/11:00am 27.6 25.1 16.2 49 7.0 S 24 37 13 20 1016.8 1016.7 0.0
25/10:30am 27.4 26.4 17.6 55 6.2 SSW 19 28 10 15 1016.9 1016.8 0.0
25/10:00am 26.7 25.5 17.5 57 5.8 S 20 28 11 15 1016.8 1016.7 0.0
25/09:30am 25.8 24.4 16.9 58 5.5 SSW 20 32 11 17 1016.9 1016.8 0.0
25/09:00am 25.4 24.1 16.8 59 5.3 SSW 19 28 10 15 1016.8 1016.7 0.0
25/08:30am 24.2 23.2 16.5 62 4.7 SSW 17 26 9 14 1016.9 1016.8 0.0
25/08:00am 23.3 22.7 16.6 66 4.1 SSW 15 20 8 11 1016.7 1016.6 0.0
25/07:30am 22.2 22.0 16.7 71 3.4 SSW 13 20 7 11 1016.5 1016.4 0.0
25/07:00am 21.3 21.1 16.7 75 2.8 SSW 13 19 7 10 1016.3 1016.2 0.0
25/06:30am 20.8 20.9 16.6 77 2.5 SSW 11 17 6 9 1016.0 1015.9 0.0
25/06:00am 20.9 21.0 16.5 76 2.7 SSW 11 19 6 10 1015.9 1015.8 0.0
25/05:30am 20.7 20.9 16.7 78 2.4 SSW 11 19 6 10 1015.8 1015.7 0.0
25/05:00am 20.4 20.8 16.4 78 2.4 SSW 9 13 5 7 1015.6 1015.5 0.0
25/04:30am 20.8 21.0 16.8 78 2.4 SSW 11 15 6 8 1015.5 1015.4 0.0
25/04:00am 20.9 21.2 16.9 78 2.4 SSW 11 17 6 9 1015.5 1015.4 0.0
25/03:30am 20.8 20.7 17.0 79 2.3 SSW 13 17 7 9 1015.6 1015.5 0.0
25/03:00am 20.9 21.2 17.1 79 2.3 SSW 11 15 6 8 1015.7 1015.6 0.0
25/02:30am 20.3 21.5 17.3 83 1.8 SSW 7 11 4 6 1015.7 1015.6 0.0
25/02:00am 20.4 21.5 17.0 81 2.1 S 7 9 4 5 1016.0 1015.9 0.0
25/01:30am 21.0 21.6 17.6 81 2.1 SSW 11 13 6 7 1016.2 1016.1 0.0
25/01:00am 19.9 21.2 17.5 86 1.5 WSW 7 7 4 4 1016.4 1016.3 0.0
25/12:30am 20.3 21.4 17.9 86 1.5 WSW 9 11 5 6 1016.8 1016.7 0.0
25/12:00am 20.6 22.0 17.8 84 1.7 SW 7 11 4 6 1016.9 1016.8 0.0
 
Date/Time
EDT
Temp
°C
App
Temp
°C
Dew
Point
°C
Rel
Hum
%
Delta-T
°C
Wind Press
QNH
hPa
Press
MSL
hPa
Rain since
9am
mm
Dir  Spd
km/h
Gust
km/h
Spd
kts
Gust
kts
24/11:30pm 20.9 22.2 17.5 81 2.1 SSW 7 9 4 5 1016.9 1016.8 0.0
24/11:00pm 21.7 22.8 17.9 79 2.4 SSW 9 11 5 6 1017.2 1017.1 0.0
24/10:30pm 21.9 23.2 17.5 76 2.7 SSW 7 9 4 5 1017.3 1017.2 0.0
24/10:00pm 22.2 23.5 17.6 75 2.8 SSW 7 9 4 5 1017.4 1017.3 0.0
24/09:30pm 22.7 24.0 17.6 73 3.2 S 7 9 4 5 1017.5 1017.4 0.0
24/09:00pm 22.7 24.1 17.8 74 3.0 S 7 11 4 6 1017.3 1017.2 0.0
24/08:30pm 23.4 24.4 17.8 71 3.5 SSE 9 13 5 7 1017.2 1017.1 0.0
24/08:00pm 24.3 24.3 18.2 68 3.8 SSE 15 19 8 10 1017.0 1016.9 0.0
24/07:30pm 24.6 24.1 17.8 66 4.3 SSE 17 24 9 13 1016.8 1016.7 0.0
24/07:00pm 25.3 24.5 18.0 64 4.6 SSE 19 26 10 14 1016.6 1016.5 0.0
24/06:30pm 25.9 24.3 18.3 63 4.8 SE 24 33 13 18 1016.5 1016.4 0.0
24/06:00pm 26.4 24.5 17.7 58 5.5 SSE 24 33 13 18 1016.3 1016.2 0.0
24/05:30pm 27.2 24.4 17.4 55 6.2 SE 28 35 15 19 1016.2 1016.1 0.0
24/05:00pm 28.3 25.7 17.8 53 6.6 SE 28 39 15 21 1016.0 1015.9 0.0
24/04:30pm 28.1 24.7 16.7 50 7.1 ESE 30 35 16 19 1016.0 1015.9 0.0
24/04:00pm 28.7 25.1 16.3 47 7.7 ESE 30 35 16 19 1016.2 1016.1 0.0
24/03:30pm 28.7 25.0 15.9 45 7.9 ESE 30 35 16 19 1016.4 1016.3 0.0
24/03:00pm 29.1 26.2 16.0 45 8.1 SE 26 35 14 19 1016.6 1016.5 0.0
24/02:30pm 29.0 25.5 16.5 46 7.8 ESE 30 35 16 19 1016.8 1016.7 0.0
24/02:00pm 29.5 26.8 16.7 46 8.0 ESE 26 33 14 18 1017.1 1017.0 0.0
24/01:30pm 29.8 27.1 16.6 45 8.3 ESE 26 33 14 18 1017.5 1017.4 0.0
24/01:00pm 29.7 27.2 16.1 43 8.4 ESE 24 32 13 17 1017.8 1017.7 0.0
24/12:30pm 29.0 26.1 16.2 46 7.9 ESE 26 35 14 19 1018.1 1018.0 0.0
24/12:00pm 29.1 26.7 16.3 46 7.9 ESE 24 32 13 17 1018.4 1018.3 0.0
24/11:30am 27.5 27.2 16.5 51 6.8 S 13 20 7 11 1018.8 1018.7 0.0
24/11:00am 27.1 26.8 16.4 52 6.6 S 13 20 7 11 1018.9 1018.8 0.0
24/10:30am 27.7 27.6 16.9 51 6.7 S 13 20 7 11 1019.0 1018.9 0.0
24/10:00am 26.8 25.3 15.2 49 7.0 S 17 22 9 12 1019.1 1019.0 0.0
24/09:30am 26.3 25.9 17.1 57 5.7 SW 15 20 8 11 1019.1 1019.0 0.0
24/09:00am 25.8 24.7 17.2 59 5.3 SSW 19 24 10 13 1018.9 1018.8 0.0
24/08:30am 24.5 24.2 16.5 61 4.9 SSW 13 19 7 10 1018.6 1018.5 0.0
24/08:00am 23.5 23.2 16.5 65 4.3 SSW 13 17 7 9 1018.5 1018.4 0.0
24/07:30am 22.1 21.9 16.8 72 3.2 SSW 13 17 7 9 1018.3 1018.2 0.0
24/07:00am 20.8 21.5 17.0 79 2.3 SSW 9 15 5 8 1018.0 1017.9 0.0
24/06:30am 20.7 21.3 16.9 79 2.3 SSW 9 13 5 7 1017.6 1017.5 0.0
24/06:00am 20.1 20.7 16.7 81 2.1 SSW 9 11 5 6 1017.3 1017.2 0.0
24/05:30am 20.0 20.7 17.0 83 1.8 S 9 11 5 6 1017.1 1017.0 0.0
24/05:00am 20.2 21.2 16.8 81 2.1 SSW 7 9 4 5 1017.0 1016.9 0.0
24/04:30am 20.5 21.4 17.5 83 1.8 SSW 9 13 5 7 1017.1 1017.0 0.0
24/04:00am 21.0 21.6 17.6 81 2.1 SSW 11 13 6 7 1017.2 1017.1 0.0
24/03:30am 20.7 21.2 17.5 82 2.0 SSW 11 13 6 7 1017.3 1017.2 0.0
24/03:00am 20.7 22.1 17.3 81 2.1 SSW 6 7 3 4 1017.5 1017.4 0.0
24/02:30am 20.7 21.8 17.1 80 2.2 SSW 7 11 4 6 1017.8 1017.7 0.0
24/02:00am 21.1 22.3 17.3 79 2.3 SSW 7 9 4 5 1018.0 1017.9 0.0
24/01:30am 21.4 22.2 17.4 78 2.5 SSW 9 11 5 6 1018.2 1018.1 0.0
24/01:00am 22.0 22.1 17.4 75 2.8 SSW 13 17 7 9 1018.4 1018.3 0.0
24/12:30am 21.8 23.3 18.0 79 2.4 SSW 7 11 4 6 1018.7 1018.6 0.0
24/12:00am 21.6 22.5 17.6 78 2.5 SSW 9 13 5 7 1018.8 1018.7 0.0
 
Date/Time
EDT
Temp
°C
App
Temp
°C
Dew
Point
°C
Rel
Hum
%
Delta-T
°C
Wind Press
QNH
hPa
Press
MSL
hPa
Rain since
9am
mm
Dir  Spd
km/h
Gust
km/h
Spd
kts
Gust
kts
23/11:30pm 20.7 22.0 17.5 82 2.0 WSW 7 11 4 6 1019.0 1018.9 0.0
23/11:00pm 22.0 22.9 17.6 76 2.7 SSW 9 11 5 6 1019.2 1019.1 0.0
23/10:30pm 22.5 23.0 17.4 73 3.1 SSW 11 15 6 8 1019.3 1019.2 0.0

Other Formats:

Comma delimited format used in spreadsheet applications
http://www.bom.gov.au/fwo/IDN60801/IDN60801.94592.axf

JavaScript Object Notation format (JSON) in row-major order
http://www.bom.gov.au/fwo/IDN60801/IDN60801.94592.json